sensor_id;sensor_type;location;lat;lon;timestamp;temperature;humidity
17992;DHT22;9121;50.926;5.340;2023-04-02T00:00:13;9.70;99.90
17992;DHT22;9121;50.926;5.340;2023-04-02T00:03:01;9.60;99.90
17992;DHT22;9121;50.926;5.340;2023-04-02T00:05:40;9.50;99.90
17992;DHT22;9121;50.926;5.340;2023-04-02T00:08:26;9.40;99.90
17992;DHT22;9121;50.926;5.340;2023-04-02T00:10:57;9.40;99.90
17992;DHT22;9121;50.926;5.340;2023-04-02T00:13:31;9.40;99.90
17992;DHT22;9121;50.926;5.340;2023-04-02T00:15:59;9.40;99.90
17992;DHT22;9121;50.926;5.340;2023-04-02T00:18:28;9.40;99.90
17992;DHT22;9121;50.926;5.340;2023-04-02T00:21:02;9.40;99.90
17992;DHT22;9121;50.926;5.340;2023-04-02T00:23:35;9.40;99.90
17992;DHT22;9121;50.926;5.340;2023-04-02T00:26:05;9.40;99.90
17992;DHT22;9121;50.926;5.340;2023-04-02T00:28:32;9.40;99.90
17992;DHT22;9121;50.926;5.340;2023-04-02T00:31:00;9.30;99.90
17992;DHT22;9121;50.926;5.340;2023-04-02T00:33:29;9.30;99.90
17992;DHT22;9121;50.926;5.340;2023-04-02T00:35:57;9.20;99.90
17992;DHT22;9121;50.926;5.340;2023-04-02T00:38:26;9.20;99.90
17992;DHT22;9121;50.926;5.340;2023-04-02T00:40:56;9.20;99.90
17992;DHT22;9121;50.926;5.340;2023-04-02T00:43:25;9.20;99.90
17992;DHT22;9121;50.926;5.340;2023-04-02T00:45:55;9.10;99.90
17992;DHT22;9121;50.926;5.340;2023-04-02T00:48:39;9.10;99.90
17992;DHT22;9121;50.926;5.340;2023-04-02T00:51:13;9.10;99.90
17992;DHT22;9121;50.926;5.340;2023-04-02T00:53:43;9.00;99.90
17992;DHT22;9121;50.926;5.340;2023-04-02T00:56:16;8.90;99.90
17992;DHT22;9121;50.926;5.340;2023-04-02T00:58:44;8.90;99.90
17992;DHT22;9121;50.926;5.340;2023-04-02T01:01:17;8.90;99.90
17992;DHT22;9121;50.926;5.340;2023-04-02T01:03:53;9.00;99.90
17992;DHT22;9121;50.926;5.340;2023-04-02T01:06:25;8.90;99.90
17992;DHT22;9121;50.926;5.340;2023-04-02T01:09:10;9.00;99.90
17992;DHT22;9121;50.926;5.340;2023-04-02T01:12:02;9.00;99.90
17992;DHT22;9121;50.926;5.340;2023-04-02T01:14:42;9.00;99.90
17992;DHT22;9121;50.926;5.340;2023-04-02T01:17:24;8.90;99.90
17992;DHT22;9121;50.926;5.340;2023-04-02T01:22:46;9.00;99.90
17992;DHT22;9121;50.926;5.340;2023-04-02T01:25:19;9.00;99.90
17992;DHT22;9121;50.926;5.340;2023-04-02T01:27:51;9.10;99.90
17992;DHT22;9121;50.926;5.340;2023-04-02T01:30:22;9.00;99.90
17992;DHT22;9121;50.926;5.340;2023-04-02T01:32:51;9.00;99.90
17992;DHT22;9121;50.926;5.340;2023-04-02T01:35:20;8.90;99.90
17992;DHT22;9121;50.926;5.340;2023-04-02T01:37:53;8.90;99.90
17992;DHT22;9121;50.926;5.340;2023-04-02T01:40:34;8.80;99.90
17992;DHT22;9121;50.926;5.340;2023-04-02T01:43:13;8.70;99.90
17992;DHT22;9121;50.926;5.340;2023-04-02T01:45:43;8.60;99.90
17992;DHT22;9121;50.926;5.340;2023-04-02T01:48:14;8.50;99.90
17992;DHT22;9121;50.926;5.340;2023-04-02T01:50:43;8.50;99.90
17992;DHT22;9121;50.926;5.340;2023-04-02T01:53:13;8.50;99.90
17992;DHT22;9121;50.926;5.340;2023-04-02T01:55:42;8.60;99.90
17992;DHT22;9121;50.926;5.340;2023-04-02T01:58:12;8.60;99.90
17992;DHT22;9121;50.926;5.340;2023-04-02T02:00:46;8.50;99.90
17992;DHT22;9121;50.926;5.340;2023-04-02T02:03:14;8.50;99.90
17992;DHT22;9121;50.926;5.340;2023-04-02T02:05:42;8.50;99.90
17992;DHT22;9121;50.926;5.340;2023-04-02T02:08:22;8.30;99.90
17992;DHT22;9121;50.926;5.340;2023-04-02T02:10:49;8.20;99.90
17992;DHT22;9121;50.926;5.340;2023-04-02T02:13:16;8.20;99.90
17992;DHT22;9121;50.926;5.340;2023-04-02T02:15:44;8.20;99.90
17992;DHT22;9121;50.926;5.340;2023-04-02T02:18:12;8.20;99.90
17992;DHT22;9121;50.926;5.340;2023-04-02T02:20:40;8.10;99.90
17992;DHT22;9121;50.926;5.340;2023-04-02T02:23:10;8.10;99.90
17992;DHT22;9121;50.926;5.340;2023-04-02T02:25:39;8.00;99.90
17992;DHT22;9121;50.926;5.340;2023-04-02T02:28:08;8.00;99.90
17992;DHT22;9121;50.926;5.340;2023-04-02T02:30:38;8.00;99.90
17992;DHT22;9121;50.926;5.340;2023-04-02T02:33:13;8.10;99.90
17992;DHT22;9121;50.926;5.340;2023-04-02T02:35:47;8.10;99.90
17992;DHT22;9121;50.926;5.340;2023-04-02T02:38:37;8.00;99.90
17992;DHT22;9121;50.926;5.340;2023-04-02T02:41:07;8.00;99.90
17992;DHT22;9121;50.926;5.340;2023-04-02T02:43:40;8.10;99.90
17992;DHT22;9121;50.926;5.340;2023-04-02T02:46:09;8.10;99.90
17992;DHT22;9121;50.926;5.340;2023-04-02T02:48:41;8.10;99.90
17992;DHT22;9121;50.926;5.340;2023-04-02T02:51:16;8.20;99.90
17992;DHT22;9121;50.926;5.340;2023-04-02T02:53:46;8.30;99.90
17992;DHT22;9121;50.926;5.340;2023-04-02T02:56:15;8.30;99.90
17992;DHT22;9121;50.926;5.340;2023-04-02T02:58:43;8.20;99.90
17992;DHT22;9121;50.926;5.340;2023-04-02T03:01:10;8.30;99.90
17992;DHT22;9121;50.926;5.340;2023-04-02T03:03:37;8.20;99.90
17992;DHT22;9121;50.926;5.340;2023-04-02T03:06:08;8.20;99.90
17992;DHT22;9121;50.926;5.340;2023-04-02T03:08:39;8.30;99.90
17992;DHT22;9121;50.926;5.340;2023-04-02T03:11:10;8.30;99.90
17992;DHT22;9121;50.926;5.340;2023-04-02T03:13:42;8.20;99.90
17992;DHT22;9121;50.926;5.340;2023-04-02T03:16:15;8.30;99.90
17992;DHT22;9121;50.926;5.340;2023-04-02T03:18:45;8.20;99.90
17992;DHT22;9121;50.926;5.340;2023-04-02T03:21:25;8.30;99.90
17992;DHT22;9121;50.926;5.340;2023-04-02T03:23:56;8.20;99.90
17992;DHT22;9121;50.926;5.340;2023-04-02T03:26:29;8.20;99.90
17992;DHT22;9121;50.926;5.340;2023-04-02T03:29:01;8.20;99.90
17992;DHT22;9121;50.926;5.340;2023-04-02T03:31:33;8.10;99.90
17992;DHT22;9121;50.926;5.340;2023-04-02T03:34:04;8.20;99.90
17992;DHT22;9121;50.926;5.340;2023-04-02T03:36:39;8.20;99.90
17992;DHT22;9121;50.926;5.340;2023-04-02T03:39:14;8.20;99.90
17992;DHT22;9121;50.926;5.340;2023-04-02T03:41:45;8.30;99.90
17992;DHT22;9121;50.926;5.340;2023-04-02T03:44:20;8.10;99.90
17992;DHT22;9121;50.926;5.340;2023-04-02T03:46:52;8.00;99.90
17992;DHT22;9121;50.926;5.340;2023-04-02T03:49:28;8.00;99.90
17992;DHT22;9121;50.926;5.340;2023-04-02T03:52:01;7.70;99.90
17992;DHT22;9121;50.926;5.340;2023-04-02T03:54:30;7.70;99.90
17992;DHT22;9121;50.926;5.340;2023-04-02T03:56:58;7.80;99.90
17992;DHT22;9121;50.926;5.340;2023-04-02T03:59:33;7.90;99.90
17992;DHT22;9121;50.926;5.340;2023-04-02T04:02:11;7.80;99.90
17992;DHT22;9121;50.926;5.340;2023-04-02T04:04:40;7.80;99.90
17992;DHT22;9121;50.926;5.340;2023-04-02T04:07:15;7.70;99.90
17992;DHT22;9121;50.926;5.340;2023-04-02T04:09:45;7.80;99.90
17992;DHT22;9121;50.926;5.340;2023-04-02T04:12:22;7.90;99.90
17992;DHT22;9121;50.926;5.340;2023-04-02T04:14:53;8.00;99.90
17992;DHT22;9121;50.926;5.340;2023-04-02T04:17:26;8.00;99.90
17992;DHT22;9121;50.926;5.340;2023-04-02T04:20:02;8.10;99.90
17992;DHT22;9121;50.926;5.340;2023-04-02T04:22:33;8.00;99.90
17992;DHT22;9121;50.926;5.340;2023-04-02T04:25:03;8.10;99.90
17992;DHT22;9121;50.926;5.340;2023-04-02T04:27:34;8.00;99.90
17992;DHT22;9121;50.926;5.340;2023-04-02T04:30:05;7.90;99.90
17992;DHT22;9121;50.926;5.340;2023-04-02T04:32:36;8.00;99.90
17992;DHT22;9121;50.926;5.340;2023-04-02T04:35:15;8.00;99.90
17992;DHT22;9121;50.926;5.340;2023-04-02T04:37:48;7.80;99.90
17992;DHT22;9121;50.926;5.340;2023-04-02T04:40:25;7.80;99.90
17992;DHT22;9121;50.926;5.340;2023-04-02T04:42:57;7.70;99.90
17992;DHT22;9121;50.926;5.340;2023-04-02T04:45:36;7.70;99.90
17992;DHT22;9121;50.926;5.340;2023-04-02T04:48:09;7.80;99.90
17992;DHT22;9121;50.926;5.340;2023-04-02T04:50:46;7.80;99.90
17992;DHT22;9121;50.926;5.340;2023-04-02T04:53:21;7.70;99.90
17992;DHT22;9121;50.926;5.340;2023-04-02T04:55:50;7.60;99.90
17992;DHT22;9121;50.926;5.340;2023-04-02T04:58:21;7.40;99.90
17992;DHT22;9121;50.926;5.340;2023-04-02T05:00:55;7.20;99.90
17992;DHT22;9121;50.926;5.340;2023-04-02T05:03:30;7.20;99.90
17992;DHT22;9121;50.926;5.340;2023-04-02T05:06:07;7.30;99.90
17992;DHT22;9121;50.926;5.340;2023-04-02T05:08:39;7.50;99.90
17992;DHT22;9121;50.926;5.340;2023-04-02T05:11:12;7.70;99.90
17992;DHT22;9121;50.926;5.340;2023-04-02T05:13:46;7.60;99.90
17992;DHT22;9121;50.926;5.340;2023-04-02T05:16:16;7.50;99.90
17992;DHT22;9121;50.926;5.340;2023-04-02T05:18:49;7.50;99.90
17992;DHT22;9121;50.926;5.340;2023-04-02T05:21:21;7.60;99.90
17992;DHT22;9121;50.926;5.340;2023-04-02T05:23:54;7.50;99.90
17992;DHT22;9121;50.926;5.340;2023-04-02T05:26:24;7.50;99.90
17992;DHT22;9121;50.926;5.340;2023-04-02T05:28:57;7.40;99.90
17992;DHT22;9121;50.926;5.340;2023-04-02T05:31:27;7.40;99.90
17992;DHT22;9121;50.926;5.340;2023-04-02T05:33:57;7.50;99.90
17992;DHT22;9121;50.926;5.340;2023-04-02T05:36:26;7.50;99.90
17992;DHT22;9121;50.926;5.340;2023-04-02T05:38:56;7.30;99.90
17992;DHT22;9121;50.926;5.340;2023-04-02T05:41:25;7.30;99.90
17992;DHT22;9121;50.926;5.340;2023-04-02T05:44:04;7.20;99.90
17992;DHT22;9121;50.926;5.340;2023-04-02T05:46:35;7.10;99.90
17992;DHT22;9121;50.926;5.340;2023-04-02T05:49:06;7.10;99.90
17992;DHT22;9121;50.926;5.340;2023-04-02T05:51:38;7.00;99.90
17992;DHT22;9121;50.926;5.340;2023-04-02T05:54:15;6.90;99.90
17992;DHT22;9121;50.926;5.340;2023-04-02T05:56:49;7.00;99.90
17992;DHT22;9121;50.926;5.340;2023-04-02T05:59:20;7.00;99.90
17992;DHT22;9121;50.926;5.340;2023-04-02T06:01:51;7.10;99.90
17992;DHT22;9121;50.926;5.340;2023-04-02T06:04:24;7.10;99.90
17992;DHT22;9121;50.926;5.340;2023-04-02T06:06:58;7.10;99.90
17992;DHT22;9121;50.926;5.340;2023-04-02T06:09:41;7.10;99.90
17992;DHT22;9121;50.926;5.340;2023-04-02T06:12:25;7.20;99.90
17992;DHT22;9121;50.926;5.340;2023-04-02T06:14:54;7.10;99.90
17992;DHT22;9121;50.926;5.340;2023-04-02T06:17:21;7.10;99.90
17992;DHT22;9121;50.926;5.340;2023-04-02T06:19:48;7.00;99.90
17992;DHT22;9121;50.926;5.340;2023-04-02T06:22:21;7.00;99.90
17992;DHT22;9121;50.926;5.340;2023-04-02T06:24:55;7.10;99.90
17992;DHT22;9121;50.926;5.340;2023-04-02T06:27:25;7.00;99.90
17992;DHT22;9121;50.926;5.340;2023-04-02T06:29:56;7.00;99.90
17992;DHT22;9121;50.926;5.340;2023-04-02T06:32:24;6.90;99.90
17992;DHT22;9121;50.926;5.340;2023-04-02T06:34:52;6.90;99.90
17992;DHT22;9121;50.926;5.340;2023-04-02T06:37:24;7.00;99.90
17992;DHT22;9121;50.926;5.340;2023-04-02T06:39:55;7.00;99.90
17992;DHT22;9121;50.926;5.340;2023-04-02T06:42:25;7.10;99.90
17992;DHT22;9121;50.926;5.340;2023-04-02T06:44:53;7.20;99.90
17992;DHT22;9121;50.926;5.340;2023-04-02T06:47:29;7.30;99.90
17992;DHT22;9121;50.926;5.340;2023-04-02T06:50:02;7.30;99.90
17992;DHT22;9121;50.926;5.340;2023-04-02T06:52:33;7.20;99.90
17992;DHT22;9121;50.926;5.340;2023-04-02T06:55:16;7.20;99.90
17992;DHT22;9121;50.926;5.340;2023-04-02T06:57:47;7.30;99.90
17992;DHT22;9121;50.926;5.340;2023-04-02T07:00:24;7.40;99.90
17992;DHT22;9121;50.926;5.340;2023-04-02T07:02:52;7.30;99.90
17992;DHT22;9121;50.926;5.340;2023-04-02T07:05:20;7.20;99.90
17992;DHT22;9121;50.926;5.340;2023-04-02T07:07:47;7.10;99.90
17992;DHT22;9121;50.926;5.340;2023-04-02T07:10:16;7.00;99.90
17992;DHT22;9121;50.926;5.340;2023-04-02T07:12:45;7.00;99.90
17992;DHT22;9121;50.926;5.340;2023-04-02T07:15:14;7.10;99.90
17992;DHT22;9121;50.926;5.340;2023-04-02T07:17:42;7.10;99.90
17992;DHT22;9121;50.926;5.340;2023-04-02T07:20:25;7.20;99.90
17992;DHT22;9121;50.926;5.340;2023-04-02T07:22:53;7.10;99.90
17992;DHT22;9121;50.926;5.340;2023-04-02T07:25:22;7.10;99.90
17992;DHT22;9121;50.926;5.340;2023-04-02T07:27:50;7.10;99.90
17992;DHT22;9121;50.926;5.340;2023-04-02T07:30:17;7.00;99.90
17992;DHT22;9121;50.926;5.340;2023-04-02T07:32:44;6.90;99.90
17992;DHT22;9121;50.926;5.340;2023-04-02T07:35:11;6.90;99.90
17992;DHT22;9121;50.926;5.340;2023-04-02T07:37:38;7.00;99.90
17992;DHT22;9121;50.926;5.340;2023-04-02T07:40:08;7.00;99.90
17992;DHT22;9121;50.926;5.340;2023-04-02T07:42:39;6.90;99.90
17992;DHT22;9121;50.926;5.340;2023-04-02T07:45:07;6.90;99.90
17992;DHT22;9121;50.926;5.340;2023-04-02T07:47:34;6.90;99.90
17992;DHT22;9121;50.926;5.340;2023-04-02T07:50:01;7.00;99.90
17992;DHT22;9121;50.926;5.340;2023-04-02T07:52:28;7.10;99.90
17992;DHT22;9121;50.926;5.340;2023-04-02T07:54:55;7.10;99.90
17992;DHT22;9121;50.926;5.340;2023-04-02T07:57:22;7.00;99.90
17992;DHT22;9121;50.926;5.340;2023-04-02T07:59:51;7.00;99.90
17992;DHT22;9121;50.926;5.340;2023-04-02T08:02:21;7.00;99.90
17992;DHT22;9121;50.926;5.340;2023-04-02T08:04:49;6.90;99.90
17992;DHT22;9121;50.926;5.340;2023-04-02T08:07:17;7.00;99.90
17992;DHT22;9121;50.926;5.340;2023-04-02T08:09:44;6.60;99.90
17992;DHT22;9121;50.926;5.340;2023-04-02T08:12:12;6.50;99.90
17992;DHT22;9121;50.926;5.340;2023-04-02T08:14:39;6.50;99.90
17992;DHT22;9121;50.926;5.340;2023-04-02T08:17:07;6.40;99.90
17992;DHT22;9121;50.926;5.340;2023-04-02T08:19:34;6.40;99.90
17992;DHT22;9121;50.926;5.340;2023-04-02T08:22:01;6.50;99.90
17992;DHT22;9121;50.926;5.340;2023-04-02T08:24:28;6.50;99.90
17992;DHT22;9121;50.926;5.340;2023-04-02T08:26:55;6.70;99.90
17992;DHT22;9121;50.926;5.340;2023-04-02T08:29:23;6.90;99.90
17992;DHT22;9121;50.926;5.340;2023-04-02T08:31:50;6.90;99.90
17992;DHT22;9121;50.926;5.340;2023-04-02T08:34:18;6.90;99.90
17992;DHT22;9121;50.926;5.340;2023-04-02T08:36:45;6.90;99.90
17992;DHT22;9121;50.926;5.340;2023-04-02T08:39:12;7.00;99.90
17992;DHT22;9121;50.926;5.340;2023-04-02T08:41:43;6.70;99.90
17992;DHT22;9121;50.926;5.340;2023-04-02T08:44:20;6.60;99.90
17992;DHT22;9121;50.926;5.340;2023-04-02T08:46:51;6.50;99.90
17992;DHT22;9121;50.926;5.340;2023-04-02T08:49:28;6.40;99.90
17992;DHT22;9121;50.926;5.340;2023-04-02T08:51:55;6.30;99.90
17992;DHT22;9121;50.926;5.340;2023-04-02T08:54:25;6.30;99.90
17992;DHT22;9121;50.926;5.340;2023-04-02T08:56:55;6.30;99.90
17992;DHT22;9121;50.926;5.340;2023-04-02T08:59:31;6.50;99.90
17992;DHT22;9121;50.926;5.340;2023-04-02T09:02:03;6.60;99.90
17992;DHT22;9121;50.926;5.340;2023-04-02T09:04:33;6.70;99.90
17992;DHT22;9121;50.926;5.340;2023-04-02T09:07:01;6.50;99.90
17992;DHT22;9121;50.926;5.340;2023-04-02T09:09:32;6.50;99.90
17992;DHT22;9121;50.926;5.340;2023-04-02T09:12:03;6.50;99.90
17992;DHT22;9121;50.926;5.340;2023-04-02T09:14:39;6.40;99.90
17992;DHT22;9121;50.926;5.340;2023-04-02T09:17:14;6.50;99.90
17992;DHT22;9121;50.926;5.340;2023-04-02T09:19:50;6.70;99.90
17992;DHT22;9121;50.926;5.340;2023-04-02T09:22:20;6.70;99.90
17992;DHT22;9121;50.926;5.340;2023-04-02T09:24:50;6.60;99.90
17992;DHT22;9121;50.926;5.340;2023-04-02T09:27:19;6.60;99.90
17992;DHT22;9121;50.926;5.340;2023-04-02T09:29:48;6.40;99.90
17992;DHT22;9121;50.926;5.340;2023-04-02T09:32:25;6.40;99.90
17992;DHT22;9121;50.926;5.340;2023-04-02T09:35:09;6.40;99.90
17992;DHT22;9121;50.926;5.340;2023-04-02T09:37:38;6.40;99.90
17992;DHT22;9121;50.926;5.340;2023-04-02T09:40:24;6.30;99.90
17992;DHT22;9121;50.926;5.340;2023-04-02T09:43:03;6.40;99.90
17992;DHT22;9121;50.926;5.340;2023-04-02T09:45:31;6.40;99.90
17992;DHT22;9121;50.926;5.340;2023-04-02T09:47:58;6.50;99.90
17992;DHT22;9121;50.926;5.340;2023-04-02T09:50:30;6.60;99.90
17992;DHT22;9121;50.926;5.340;2023-04-02T09:52:58;6.80;99.90
17992;DHT22;9121;50.926;5.340;2023-04-02T09:55:26;6.80;99.90
17992;DHT22;9121;50.926;5.340;2023-04-02T09:58:12;6.70;99.90
17992;DHT22;9121;50.926;5.340;2023-04-02T10:00:39;6.70;99.90
17992;DHT22;9121;50.926;5.340;2023-04-02T10:03:22;6.50;99.90
17992;DHT22;9121;50.926;5.340;2023-04-02T10:06:07;6.50;99.90
17992;DHT22;9121;50.926;5.340;2023-04-02T10:08:35;6.60;99.90
17992;DHT22;9121;50.926;5.340;2023-04-02T10:11:06;6.40;99.90
17992;DHT22;9121;50.926;5.340;2023-04-02T10:13:48;6.40;99.90
17992;DHT22;9121;50.926;5.340;2023-04-02T10:16:21;6.30;99.90
17992;DHT22;9121;50.926;5.340;2023-04-02T10:18:51;6.50;99.90
17992;DHT22;9121;50.926;5.340;2023-04-02T10:21:24;6.50;99.90
17992;DHT22;9121;50.926;5.340;2023-04-02T10:23:52;6.60;99.90
17992;DHT22;9121;50.926;5.340;2023-04-02T10:26:33;6.60;99.90
17992;DHT22;9121;50.926;5.340;2023-04-02T10:32:05;6.80;99.90
17992;DHT22;9121;50.926;5.340;2023-04-02T10:34:39;6.80;98.50
17992;DHT22;9121;50.926;5.340;2023-04-02T10:40:10;6.70;98.50
17992;DHT22;9121;50.926;5.340;2023-04-02T10:42:45;6.70;98.20
17992;DHT22;9121;50.926;5.340;2023-04-02T10:45:21;6.80;97.70
17992;DHT22;9121;50.926;5.340;2023-04-02T10:47:56;6.70;99.20
17992;DHT22;9121;50.926;5.340;2023-04-02T10:50:34;6.90;98.20
17992;DHT22;9121;50.926;5.340;2023-04-02T10:53:10;7.00;99.60
17992;DHT22;9121;50.926;5.340;2023-04-02T10:55:43;7.10;96.70
17992;DHT22;9121;50.926;5.340;2023-04-02T10:58:21;7.20;97.60
17992;DHT22;9121;50.926;5.340;2023-04-02T11:00:49;7.10;93.20
17992;DHT22;9121;50.926;5.340;2023-04-02T11:03:22;6.90;93.60
17992;DHT22;9121;50.926;5.340;2023-04-02T11:05:55;6.90;95.90
17992;DHT22;9121;50.926;5.340;2023-04-02T11:08:26;6.90;95.60
17992;DHT22;9121;50.926;5.340;2023-04-02T11:10:57;6.80;92.60
17992;DHT22;9121;50.926;5.340;2023-04-02T11:13:26;6.70;92.00
17992;DHT22;9121;50.926;5.340;2023-04-02T11:15:54;6.60;92.40
17992;DHT22;9121;50.926;5.340;2023-04-02T11:18:23;6.70;96.80
17992;DHT22;9121;50.926;5.340;2023-04-02T11:21:00;6.90;91.40
17992;DHT22;9121;50.926;5.340;2023-04-02T11:26:34;6.90;92.80
17992;DHT22;9121;50.926;5.340;2023-04-02T11:29:14;7.20;92.60
17992;DHT22;9121;50.926;5.340;2023-04-02T11:31:43;7.30;90.20
17992;DHT22;9121;50.926;5.340;2023-04-02T11:34:15;7.30;90.00
17992;DHT22;9121;50.926;5.340;2023-04-02T11:37:08;7.30;89.50
17992;DHT22;9121;50.926;5.340;2023-04-02T11:39:51;7.50;90.70
17992;DHT22;9121;50.926;5.340;2023-04-02T11:42:27;7.40;82.60
17992;DHT22;9121;50.926;5.340;2023-04-02T11:44:57;7.30;79.00
17992;DHT22;9121;50.926;5.340;2023-04-02T11:47:25;7.30;82.90
17992;DHT22;9121;50.926;5.340;2023-04-02T11:50:01;7.20;87.20
17992;DHT22;9121;50.926;5.340;2023-04-02T11:52:35;7.30;86.80
17992;DHT22;9121;50.926;5.340;2023-04-02T11:55:20;7.20;86.00
17992;DHT22;9121;50.926;5.340;2023-04-02T11:58:21;7.40;91.40
17992;DHT22;9121;50.926;5.340;2023-04-02T12:07:05;7.40;83.60
17992;DHT22;9121;50.926;5.340;2023-04-02T12:09:43;7.40;80.70
17992;DHT22;9121;50.926;5.340;2023-04-02T12:12:25;7.40;84.70
17992;DHT22;9121;50.926;5.340;2023-04-02T12:14:54;7.40;87.70
17992;DHT22;9121;50.926;5.340;2023-04-02T12:17:28;7.40;81.60
17992;DHT22;9121;50.926;5.340;2023-04-02T12:19:57;7.30;86.00
17992;DHT22;9121;50.926;5.340;2023-04-02T12:22:28;7.50;85.00
17992;DHT22;9121;50.926;5.340;2023-04-02T12:24:58;7.50;82.30
17992;DHT22;9121;50.926;5.340;2023-04-02T12:27:28;7.40;83.60
17992;DHT22;9121;50.926;5.340;2023-04-02T12:30:11;7.40;84.00
17992;DHT22;9121;50.926;5.340;2023-04-02T12:32:39;7.30;84.00
17992;DHT22;9121;50.926;5.340;2023-04-02T12:35:25;7.30;86.30
17992;DHT22;9121;50.926;5.340;2023-04-02T12:37:53;7.30;86.70
17992;DHT22;9121;50.926;5.340;2023-04-02T12:40:20;7.40;87.50
17992;DHT22;9121;50.926;5.340;2023-04-02T12:42:48;7.30;81.40
17992;DHT22;9121;50.926;5.340;2023-04-02T12:45:23;7.00;84.60
17992;DHT22;9121;50.926;5.340;2023-04-02T12:47:50;6.90;89.20
17992;DHT22;9121;50.926;5.340;2023-04-02T12:50:19;6.90;90.00
17992;DHT22;9121;50.926;5.340;2023-04-02T12:52:49;6.90;90.40
17992;DHT22;9121;50.926;5.340;2023-04-02T12:55:20;7.20;91.50
17992;DHT22;9121;50.926;5.340;2023-04-02T12:57:54;7.30;87.10
17992;DHT22;9121;50.926;5.340;2023-04-02T13:00:29;7.40;78.10
17992;DHT22;9121;50.926;5.340;2023-04-02T13:03:19;7.30;82.10
17992;DHT22;9121;50.926;5.340;2023-04-02T13:05:50;7.50;82.80
17992;DHT22;9121;50.926;5.340;2023-04-02T13:08:21;7.60;83.20
17992;DHT22;9121;50.926;5.340;2023-04-02T13:10:52;7.80;76.30
17992;DHT22;9121;50.926;5.340;2023-04-02T13:13:25;7.70;73.70
17992;DHT22;9121;50.926;5.340;2023-04-02T13:16:04;7.70;75.80
17992;DHT22;9121;50.926;5.340;2023-04-02T13:18:33;7.60;74.90
17992;DHT22;9121;50.926;5.340;2023-04-02T13:21:02;7.40;71.80
17992;DHT22;9121;50.926;5.340;2023-04-02T13:23:34;7.40;77.20
17992;DHT22;9121;50.926;5.340;2023-04-02T13:26:12;7.50;79.90
17992;DHT22;9121;50.926;5.340;2023-04-02T13:28:42;7.60;73.70
17992;DHT22;9121;50.926;5.340;2023-04-02T13:31:14;7.60;70.50
17992;DHT22;9121;50.926;5.340;2023-04-02T13:33:41;7.40;72.00
17992;DHT22;9121;50.926;5.340;2023-04-02T13:36:11;7.30;81.30
17992;DHT22;9121;50.926;5.340;2023-04-02T13:38:39;7.40;83.60
17992;DHT22;9121;50.926;5.340;2023-04-02T13:41:08;7.20;78.40
17992;DHT22;9121;50.926;5.340;2023-04-02T13:43:36;7.20;81.10
17992;DHT22;9121;50.926;5.340;2023-04-02T13:46:05;7.30;81.90
17992;DHT22;9121;50.926;5.340;2023-04-02T13:48:32;7.30;82.30
17992;DHT22;9121;50.926;5.340;2023-04-02T13:51:00;7.50;76.80
17992;DHT22;9121;50.926;5.340;2023-04-02T13:53:29;7.50;73.00
17992;DHT22;9121;50.926;5.340;2023-04-02T13:55:57;7.50;70.20
17992;DHT22;9121;50.926;5.340;2023-04-02T13:58:25;7.40;77.10
17992;DHT22;9121;50.926;5.340;2023-04-02T14:00:52;7.40;81.20
17992;DHT22;9121;50.926;5.340;2023-04-02T14:03:21;7.60;78.00
17992;DHT22;9121;50.926;5.340;2023-04-02T14:05:55;7.60;75.30
17992;DHT22;9121;50.926;5.340;2023-04-02T14:08:31;7.70;76.80
17992;DHT22;9121;50.926;5.340;2023-04-02T14:11:12;7.70;75.20
17992;DHT22;9121;50.926;5.340;2023-04-02T14:14:04;7.80;76.10
17992;DHT22;9121;50.926;5.340;2023-04-02T14:16:45;7.80;69.00
17992;DHT22;9121;50.926;5.340;2023-04-02T14:19:29;7.60;77.30
17992;DHT22;9121;50.926;5.340;2023-04-02T14:22:06;7.60;69.40
17992;DHT22;9121;50.926;5.340;2023-04-02T14:24:45;7.50;78.10
17992;DHT22;9121;50.926;5.340;2023-04-02T14:27:23;7.60;78.90
17992;DHT22;9121;50.926;5.340;2023-04-02T14:29:57;7.60;71.00
17992;DHT22;9121;50.926;5.340;2023-04-02T14:32:31;7.50;72.10
17992;DHT22;9121;50.926;5.340;2023-04-02T14:35:07;7.50;74.20
17992;DHT22;9121;50.926;5.340;2023-04-02T14:37:41;7.30;78.10
17992;DHT22;9121;50.926;5.340;2023-04-02T14:42:59;7.30;88.10
17992;DHT22;9121;50.926;5.340;2023-04-02T14:45:37;7.40;79.90
17992;DHT22;9121;50.926;5.340;2023-04-02T14:48:19;7.40;81.10
17992;DHT22;9121;50.926;5.340;2023-04-02T14:50:56;7.50;80.90
17992;DHT22;9121;50.926;5.340;2023-04-02T14:53:28;7.50;76.10
17992;DHT22;9121;50.926;5.340;2023-04-02T14:56:00;7.50;78.70
17992;DHT22;9121;50.926;5.340;2023-04-02T14:58:33;7.60;78.90
17992;DHT22;9121;50.926;5.340;2023-04-02T15:01:06;7.70;76.20
17992;DHT22;9121;50.926;5.340;2023-04-02T15:03:42;7.80;81.50
17992;DHT22;9121;50.926;5.340;2023-04-02T15:06:15;7.90;70.70
17992;DHT22;9121;50.926;5.340;2023-04-02T15:08:46;7.70;64.00
17992;DHT22;9121;50.926;5.340;2023-04-02T15:11:18;7.50;68.30
17992;DHT22;9121;50.926;5.340;2023-04-02T15:13:50;7.50;64.00
17992;DHT22;9121;50.926;5.340;2023-04-02T15:16:21;7.50;68.90
17992;DHT22;9121;50.926;5.340;2023-04-02T15:18:50;7.50;60.60
17992;DHT22;9121;50.926;5.340;2023-04-02T15:21:36;7.50;70.60
17992;DHT22;9121;50.926;5.340;2023-04-02T15:24:14;7.60;68.10
17992;DHT22;9121;50.926;5.340;2023-04-02T15:26:50;7.80;63.50
17992;DHT22;9121;50.926;5.340;2023-04-02T15:29:25;7.90;65.20
17992;DHT22;9121;50.926;5.340;2023-04-02T15:32:00;8.00;66.00
17992;DHT22;9121;50.926;5.340;2023-04-02T15:34:31;8.00;57.40
17992;DHT22;9121;50.926;5.340;2023-04-02T15:37:22;7.90;53.80
17992;DHT22;9121;50.926;5.340;2023-04-02T15:42:54;7.60;58.50
17992;DHT22;9121;50.926;5.340;2023-04-02T15:45:39;7.70;69.30
17992;DHT22;9121;50.926;5.340;2023-04-02T15:48:25;7.80;61.80
17992;DHT22;9121;50.926;5.340;2023-04-02T15:51:08;7.80;61.00
17992;DHT22;9121;50.926;5.340;2023-04-02T15:53:45;8.00;57.20
17992;DHT22;9121;50.926;5.340;2023-04-02T15:56:20;7.90;52.40
17992;DHT22;9121;50.926;5.340;2023-04-02T16:01:47;7.90;58.60
17992;DHT22;9121;50.926;5.340;2023-04-02T16:04:34;7.90;52.10
17992;DHT22;9121;50.926;5.340;2023-04-02T16:07:29;7.70;54.90
17992;DHT22;9121;50.926;5.340;2023-04-02T16:10:05;7.80;57.10
17992;DHT22;9121;50.926;5.340;2023-04-02T16:12:36;7.90;55.80
17992;DHT22;9121;50.926;5.340;2023-04-02T16:15:10;7.80;53.40
17992;DHT22;9121;50.926;5.340;2023-04-02T16:17:42;7.70;57.40
17992;DHT22;9121;50.926;5.340;2023-04-02T16:20:20;7.80;57.80
17992;DHT22;9121;50.926;5.340;2023-04-02T16:22:53;7.80;46.40
17992;DHT22;9121;50.926;5.340;2023-04-02T16:25:24;7.80;44.40
17992;DHT22;9121;50.926;5.340;2023-04-02T16:27:59;7.70;43.90
17992;DHT22;9121;50.926;5.340;2023-04-02T16:30:38;7.80;54.30
17992;DHT22;9121;50.926;5.340;2023-04-02T16:33:20;7.90;46.10
17992;DHT22;9121;50.926;5.340;2023-04-02T16:35:56;8.00;48.20
17992;DHT22;9121;50.926;5.340;2023-04-02T16:38:43;8.00;48.30
17992;DHT22;9121;50.926;5.340;2023-04-02T16:41:19;8.10;42.80
17992;DHT22;9121;50.926;5.340;2023-04-02T16:43:55;8.20;41.20
17992;DHT22;9121;50.926;5.340;2023-04-02T16:46:32;8.20;35.40
17992;DHT22;9121;50.926;5.340;2023-04-02T16:49:06;8.20;32.80
17992;DHT22;9121;50.926;5.340;2023-04-02T16:51:39;8.10;36.60
17992;DHT22;9121;50.926;5.340;2023-04-02T16:54:10;8.10;26.60
17992;DHT22;9121;50.926;5.340;2023-04-02T16:56:51;8.20;21.50
17992;DHT22;9121;50.926;5.340;2023-04-02T16:59:26;8.10;30.00
17992;DHT22;9121;50.926;5.340;2023-04-02T17:02:01;8.10;30.70
17992;DHT22;9121;50.926;5.340;2023-04-02T17:04:52;8.10;36.10